sensor_id;sensor_type;location;lat;lon;timestamp;pressure;altitude;pressure_sealevel;temperature;humidity
34031;BME280;20319;28.466;-16.274;2023-09-07T00:02:18;95399.09;;;18.26;100.00
34031;BME280;20319;28.466;-16.274;2023-09-07T00:04:43;95592.81;;;19.36;100.00
34031;BME280;20319;28.466;-16.274;2023-09-07T00:07:09;95575.50;;;19.32;100.00
34031;BME280;20319;28.466;-16.274;2023-09-07T00:09:34;95557.84;;;19.21;100.00
34031;BME280;20319;28.466;-16.274;2023-09-07T00:12:00;95434.22;;;18.45;100.00
34031;BME280;20319;28.466;-16.274;2023-09-07T00:14:26;95239.66;;;17.23;100.00
34031;BME280;20319;28.466;-16.274;2023-09-07T00:16:51;95581.75;;;19.32;100.00
34031;BME280;20319;28.466;-16.274;2023-09-07T00:19:17;95418.78;;;18.32;100.00
34031;BME280;20319;28.466;-16.274;2023-09-07T00:21:43;95577.41;;;19.31;100.00
34031;BME280;20319;28.466;-16.274;2023-09-07T00:24:08;95573.09;;;19.30;100.00
34031;BME280;20319;28.466;-16.274;2023-09-07T00:26:35;95396.53;;;18.21;100.00
34031;BME280;20319;28.466;-16.274;2023-09-07T00:29:01;95552.56;;;19.15;100.00
34031;BME280;20319;28.466;-16.274;2023-09-07T00:31:26;95579.03;;;19.32;100.00
34031;BME280;20319;28.466;-16.274;2023-09-07T00:33:52;95414.91;;;18.24;100.00
34031;BME280;20319;28.466;-16.274;2023-09-07T00:36:18;95594.03;;;19.30;100.00
34031;BME280;20319;28.466;-16.274;2023-09-07T00:38:43;95526.19;;;18.85;100.00
34031;BME280;20319;28.466;-16.274;2023-09-07T00:41:09;95471.28;;;18.58;100.00
34031;BME280;20319;28.466;-16.274;2023-09-07T00:43:35;95393.06;;;18.07;100.00
34031;BME280;20319;28.466;-16.274;2023-09-07T00:46:00;95402.22;;;18.11;100.00
34031;BME280;20319;28.466;-16.274;2023-09-07T00:48:26;95553.63;;;19.06;100.00
34031;BME280;20319;28.466;-16.274;2023-09-07T00:50:52;95562.44;;;19.11;100.00
34031;BME280;20319;28.466;-16.274;2023-09-07T00:53:18;95570.94;;;19.18;100.00
34031;BME280;20319;28.466;-16.274;2023-09-07T00:55:44;95528.97;;;18.94;100.00
34031;BME280;20319;28.466;-16.274;2023-09-07T00:58:11;95486.81;;;18.66;100.00
34031;BME280;20319;28.466;-16.274;2023-09-07T01:00:37;95444.88;;;18.28;100.00
34031;BME280;20319;28.466;-16.274;2023-09-07T01:03:03;95544.13;;;18.95;100.00
34031;BME280;20319;28.466;-16.274;2023-09-07T01:05:34;95341.84;;;17.39;100.00
34031;BME280;20319;28.466;-16.274;2023-09-07T01:08:10;95567.88;;;19.11;100.00
34031;BME280;20319;28.466;-16.274;2023-09-07T01:10:37;95566.88;;;19.07;100.00
34031;BME280;20319;28.466;-16.274;2023-09-07T01:13:03;95575.22;;;19.11;100.00
34031;BME280;20319;28.466;-16.274;2023-09-07T01:15:28;95414.03;;;18.15;100.00
34031;BME280;20319;28.466;-16.274;2023-09-07T01:17:54;95402.44;;;18.01;100.00
34031;BME280;20319;28.466;-16.274;2023-09-07T01:20:23;95562.50;;;18.98;100.00
34031;BME280;20319;28.466;-16.274;2023-09-07T01:22:49;95588.72;;;19.02;100.00
34031;BME280;20319;28.466;-16.274;2023-09-07T01:25:15;95410.56;;;18.01;100.00
34031;BME280;20319;28.466;-16.274;2023-09-07T01:27:41;95416.84;;;18.10;100.00
34031;BME280;20319;28.466;-16.274;2023-09-07T01:30:07;95571.53;;;19.07;100.00
34031;BME280;20319;28.466;-16.274;2023-09-07T01:32:33;95571.34;;;19.03;100.00
34031;BME280;20319;28.466;-16.274;2023-09-07T01:34:59;95579.47;;;19.03;100.00
34031;BME280;20319;28.466;-16.274;2023-09-07T01:37:26;95543.91;;;18.83;100.00
34031;BME280;20319;28.466;-16.274;2023-09-07T01:39:52;95563.50;;;19.02;100.00
34031;BME280;20319;28.466;-16.274;2023-09-07T01:42:17;95515.25;;;18.68;100.00
34031;BME280;20319;28.466;-16.274;2023-09-07T01:44:43;95569.25;;;19.00;100.00
34031;BME280;20319;28.466;-16.274;2023-09-07T01:47:09;95565.22;;;18.98;100.00
34031;BME280;20319;28.466;-16.274;2023-09-07T01:49:34;95511.84;;;18.63;100.00
34031;BME280;20319;28.466;-16.274;2023-09-07T01:52:00;95409.41;;;17.94;100.00
34031;BME280;20319;28.466;-16.274;2023-09-07T01:54:26;95458.63;;;18.09;100.00
34031;BME280;20319;28.466;-16.274;2023-09-07T01:56:51;95587.88;;;18.93;100.00
34031;BME280;20319;28.466;-16.274;2023-09-07T01:59:17;95584.50;;;18.88;100.00
34031;BME280;20319;28.466;-16.274;2023-09-07T02:01:42;95579.22;;;18.91;100.00
34031;BME280;20319;28.466;-16.274;2023-09-07T02:04:08;95602.06;;;18.90;100.00
34031;BME280;20319;28.466;-16.274;2023-09-07T02:06:34;95417.47;;;17.85;100.00
34031;BME280;20319;28.466;-16.274;2023-09-07T02:09:00;95420.66;;;17.87;100.00
34031;BME280;20319;28.466;-16.274;2023-09-07T02:11:25;95579.66;;;18.85;100.00
34031;BME280;20319;28.466;-16.274;2023-09-07T02:13:51;95575.34;;;18.84;100.00
34031;BME280;20319;28.466;-16.274;2023-09-07T02:16:17;95432.00;;;17.89;100.00
34031;BME280;20319;28.466;-16.274;2023-09-07T02:18:44;95558.75;;;18.63;100.00
34031;BME280;20319;28.466;-16.274;2023-09-07T02:21:11;95575.47;;;18.79;100.00
34031;BME280;20319;28.466;-16.274;2023-09-07T02:23:37;95460.06;;;18.07;100.00
34031;BME280;20319;28.466;-16.274;2023-09-07T02:26:03;95541.78;;;18.58;100.00
34031;BME280;20319;28.466;-16.274;2023-09-07T02:28:29;95461.03;;;18.11;100.00
34031;BME280;20319;28.466;-16.274;2023-09-07T02:31:02;95396.75;;;17.67;100.00
34031;BME280;20319;28.466;-16.274;2023-09-07T02:33:28;95565.34;;;18.71;100.00
34031;BME280;20319;28.466;-16.274;2023-09-07T02:35:53;95578.13;;;18.70;100.00
34031;BME280;20319;28.466;-16.274;2023-09-07T02:38:19;95557.84;;;18.68;100.00
34031;BME280;20319;28.466;-16.274;2023-09-07T02:40:45;95585.03;;;18.76;100.00
34031;BME280;20319;28.466;-16.274;2023-09-07T02:43:11;95572.22;;;18.68;100.00
34031;BME280;20319;28.466;-16.274;2023-09-07T02:45:37;95562.41;;;18.81;100.00
34031;BME280;20319;28.466;-16.274;2023-09-07T02:48:04;95414.75;;;17.85;100.00
34031;BME280;20319;28.466;-16.274;2023-09-07T02:50:32;95555.53;;;18.83;100.00
34031;BME280;20319;28.466;-16.274;2023-09-07T02:52:59;95541.25;;;18.69;100.00
34031;BME280;20319;28.466;-16.274;2023-09-07T02:55:26;95562.59;;;18.84;100.00
34031;BME280;20319;28.466;-16.274;2023-09-07T02:57:51;95451.50;;;18.13;100.00
34031;BME280;20319;28.466;-16.274;2023-09-07T03:00:17;95552.84;;;18.83;100.00
34031;BME280;20319;28.466;-16.274;2023-09-07T03:02:43;95553.94;;;18.82;100.00
34031;BME280;20319;28.466;-16.274;2023-09-07T03:05:09;95541.13;;;18.74;100.00
34031;BME280;20319;28.466;-16.274;2023-09-07T03:07:35;95516.47;;;18.62;100.00
34031;BME280;20319;28.466;-16.274;2023-09-07T03:10:01;95549.88;;;18.71;100.00
34031;BME280;20319;28.466;-16.274;2023-09-07T03:12:27;95526.09;;;18.68;100.00
34031;BME280;20319;28.466;-16.274;2023-09-07T03:14:53;95552.97;;;18.78;100.00
34031;BME280;20319;28.466;-16.274;2023-09-07T03:17:19;95528.19;;;18.71;100.00
34031;BME280;20319;28.466;-16.274;2023-09-07T03:19:46;95400.13;;;17.86;100.00
34031;BME280;20319;28.466;-16.274;2023-09-07T03:22:13;95528.13;;;18.63;100.00
34031;BME280;20319;28.466;-16.274;2023-09-07T03:24:39;95503.03;;;18.57;100.00
34031;BME280;20319;28.466;-16.274;2023-09-07T03:27:05;95380.66;;;17.84;100.00
34031;BME280;20319;28.466;-16.274;2023-09-07T03:29:36;95542.13;;;18.78;100.00
34031;BME280;20319;28.466;-16.274;2023-09-07T03:32:02;95528.13;;;18.63;100.00
34031;BME280;20319;28.466;-16.274;2023-09-07T03:34:27;95551.97;;;18.74;100.00
34031;BME280;20319;28.466;-16.274;2023-09-07T03:36:53;95552.59;;;18.71;100.00
34031;BME280;20319;28.466;-16.274;2023-09-07T03:39:19;95549.69;;;18.68;100.00
34031;BME280;20319;28.466;-16.274;2023-09-07T03:41:47;95561.78;;;18.62;100.00
34031;BME280;20319;28.466;-16.274;2023-09-07T03:44:13;95559.19;;;18.57;100.00
34031;BME280;20319;28.466;-16.274;2023-09-07T03:46:39;95507.78;;;18.16;100.00
34031;BME280;20319;28.466;-16.274;2023-09-07T03:49:04;95559.91;;;18.49;100.00
34031;BME280;20319;28.466;-16.274;2023-09-07T03:51:30;95526.22;;;18.28;100.00
34031;BME280;20319;28.466;-16.274;2023-09-07T03:53:56;95389.47;;;17.40;100.00
34031;BME280;20319;28.466;-16.274;2023-09-07T03:56:21;95499.69;;;18.03;100.00
34031;BME280;20319;28.466;-16.274;2023-09-07T03:58:47;95303.78;;;16.87;100.00
34031;BME280;20319;28.466;-16.274;2023-09-07T04:01:13;95559.75;;;18.32;100.00
34031;BME280;20319;28.466;-16.274;2023-09-07T04:03:39;95253.34;;;16.55;100.00
34031;BME280;20319;28.466;-16.274;2023-09-07T04:06:06;95253.03;;;16.57;100.00
34031;BME280;20319;28.466;-16.274;2023-09-07T04:08:32;95559.25;;;18.43;100.00
34031;BME280;20319;28.466;-16.274;2023-09-07T04:10:57;95423.16;;;17.61;100.00
34031;BME280;20319;28.466;-16.274;2023-09-07T04:13:23;95541.66;;;18.41;100.00
34031;BME280;20319;28.466;-16.274;2023-09-07T04:15:49;95550.09;;;18.39;100.00
34031;BME280;20319;28.466;-16.274;2023-09-07T04:18:15;95401.59;;;17.43;100.00
34031;BME280;20319;28.466;-16.274;2023-09-07T04:20:42;95369.34;;;17.33;100.00
34031;BME280;20319;28.466;-16.274;2023-09-07T04:23:08;95380.38;;;17.36;100.00
34031;BME280;20319;28.466;-16.274;2023-09-07T04:25:34;95554.00;;;18.47;100.00
34031;BME280;20319;28.466;-16.274;2023-09-07T04:28:00;95550.84;;;18.53;100.00
34031;BME280;20319;28.466;-16.274;2023-09-07T04:30:25;95400.97;;;17.73;100.00
34031;BME280;20319;28.466;-16.274;2023-09-07T04:32:51;95543.78;;;18.66;100.00
34031;BME280;20319;28.466;-16.274;2023-09-07T04:35:17;95530.50;;;18.64;100.00
34031;BME280;20319;28.466;-16.274;2023-09-07T04:37:43;95496.63;;;18.53;100.00
34031;BME280;20319;28.466;-16.274;2023-09-07T04:40:09;95562.91;;;18.83;100.00
34031;BME280;20319;28.466;-16.274;2023-09-07T04:42:35;95531.56;;;18.77;100.00
34031;BME280;20319;28.466;-16.274;2023-09-07T04:45:01;95395.06;;;17.93;100.00
34031;BME280;20319;28.466;-16.274;2023-09-07T04:47:27;95559.00;;;18.97;100.00
34031;BME280;20319;28.466;-16.274;2023-09-07T04:49:52;95521.81;;;18.76;100.00
34031;BME280;20319;28.466;-16.274;2023-09-07T04:52:18;95530.66;;;18.81;100.00
34031;BME280;20319;28.466;-16.274;2023-09-07T04:54:44;95497.22;;;18.72;100.00
34031;BME280;20319;28.466;-16.274;2023-09-07T04:57:10;95525.84;;;18.78;100.00
34031;BME280;20319;28.466;-16.274;2023-09-07T04:59:36;95276.25;;;17.20;100.00
34031;BME280;20319;28.466;-16.274;2023-09-07T05:02:02;95568.75;;;18.98;100.00
34031;BME280;20319;28.466;-16.274;2023-09-07T05:04:28;95538.72;;;18.73;100.00
34031;BME280;20319;28.466;-16.274;2023-09-07T05:06:55;95413.81;;;17.90;100.00
34031;BME280;20319;28.466;-16.274;2023-09-07T05:09:21;95576.94;;;18.85;100.00
34031;BME280;20319;28.466;-16.274;2023-09-07T05:11:49;95574.53;;;18.83;100.00
34031;BME280;20319;28.466;-16.274;2023-09-07T05:14:14;95586.94;;;18.76;100.00
34031;BME280;20319;28.466;-16.274;2023-09-07T05:16:42;95562.72;;;18.79;100.00
34031;BME280;20319;28.466;-16.274;2023-09-07T05:19:09;95577.09;;;18.80;100.00
34031;BME280;20319;28.466;-16.274;2023-09-07T05:21:35;95564.81;;;18.60;100.00
34031;BME280;20319;28.466;-16.274;2023-09-07T05:24:00;95420.34;;;17.89;100.00
34031;BME280;20319;28.466;-16.274;2023-09-07T05:26:26;95562.59;;;18.84;100.00
34031;BME280;20319;28.466;-16.274;2023-09-07T05:28:52;95558.00;;;18.93;100.00
34031;BME280;20319;28.466;-16.274;2023-09-07T05:31:17;95564.59;;;19.01;100.00
34031;BME280;20319;28.466;-16.274;2023-09-07T05:33:43;95553.09;;;18.95;100.00
34031;BME280;20319;28.466;-16.274;2023-09-07T05:36:09;95564.66;;;19.09;100.00
34031;BME280;20319;28.466;-16.274;2023-09-07T05:38:34;95413.66;;;18.08;100.00
34031;BME280;20319;28.466;-16.274;2023-09-07T05:41:00;95551.66;;;18.98;100.00
34031;BME280;20319;28.466;-16.274;2023-09-07T05:43:26;95581.31;;;19.17;100.00
34031;BME280;20319;28.466;-16.274;2023-09-07T05:45:51;95594.41;;;19.14;100.00
34031;BME280;20319;28.466;-16.274;2023-09-07T05:48:17;95597.13;;;19.14;100.00
34031;BME280;20319;28.466;-16.274;2023-09-07T05:50:44;95602.53;;;19.14;100.00
34031;BME280;20319;28.466;-16.274;2023-09-07T05:53:10;95591.63;;;19.06;100.00
34031;BME280;20319;28.466;-16.274;2023-09-07T05:55:36;95602.03;;;19.12;100.00
34031;BME280;20319;28.466;-16.274;2023-09-07T05:58:05;95507.84;;;18.60;100.00
34031;BME280;20319;28.466;-16.274;2023-09-07T06:00:31;95446.66;;;18.10;100.00
34031;BME280;20319;28.466;-16.274;2023-09-07T06:02:57;95623.25;;;19.10;100.00
34031;BME280;20319;28.466;-16.274;2023-09-07T06:05:23;95580.97;;;18.87;100.00
34031;BME280;20319;28.466;-16.274;2023-09-07T06:07:49;95568.44;;;18.78;100.00
34031;BME280;20319;28.466;-16.274;2023-09-07T06:10:14;95614.06;;;18.98;100.00
34031;BME280;20319;28.466;-16.274;2023-09-07T06:12:40;95445.44;;;17.94;100.00
34031;BME280;20319;28.466;-16.274;2023-09-07T06:15:08;95624.69;;;19.08;100.00
34031;BME280;20319;28.466;-16.274;2023-09-07T06:17:34;95640.47;;;19.06;100.00
34031;BME280;20319;28.466;-16.274;2023-09-07T06:20:00;95633.75;;;19.03;100.00
34031;BME280;20319;28.466;-16.274;2023-09-07T06:22:25;95590.50;;;18.85;100.00
34031;BME280;20319;28.466;-16.274;2023-09-07T06:24:51;95621.13;;;18.99;100.00
34031;BME280;20319;28.466;-16.274;2023-09-07T06:27:17;95615.50;;;18.95;100.00
34031;BME280;20319;28.466;-16.274;2023-09-07T06:29:42;95619.00;;;18.96;100.00
34031;BME280;20319;28.466;-16.274;2023-09-07T06:32:08;95600.81;;;18.96;100.00
34031;BME280;20319;28.466;-16.274;2023-09-07T06:34:33;95464.03;;;18.09;100.00
34031;BME280;20319;28.466;-16.274;2023-09-07T06:36:59;95463.06;;;18.05;100.00
34031;BME280;20319;28.466;-16.274;2023-09-07T06:39:25;95598.53;;;18.90;100.00
34031;BME280;20319;28.466;-16.274;2023-09-07T06:41:51;95625.94;;;19.02;100.00
34031;BME280;20319;28.466;-16.274;2023-09-07T06:44:16;95623.38;;;19.05;100.00
34031;BME280;20319;28.466;-16.274;2023-09-07T06:46:42;95630.13;;;19.08;100.00
34031;BME280;20319;28.466;-16.274;2023-09-07T06:49:08;95560.44;;;18.73;100.00
34031;BME280;20319;28.466;-16.274;2023-09-07T06:51:33;95623.38;;;19.05;100.00
34031;BME280;20319;28.466;-16.274;2023-09-07T06:53:59;95605.00;;;19.02;100.00
34031;BME280;20319;28.466;-16.274;2023-09-07T06:56:25;95646.53;;;19.03;100.00
34031;BME280;20319;28.466;-16.274;2023-09-07T06:58:52;95650.25;;;19.07;100.00
34031;BME280;20319;28.466;-16.274;2023-09-07T07:01:18;95604.34;;;18.97;100.00
34031;BME280;20319;28.466;-16.274;2023-09-07T07:03:44;95462.34;;;18.13;100.00
34031;BME280;20319;28.466;-16.274;2023-09-07T07:06:10;95323.81;;;17.35;100.00
34031;BME280;20319;28.466;-16.274;2023-09-07T07:08:35;95626.59;;;19.07;100.00
34031;BME280;20319;28.466;-16.274;2023-09-07T07:11:01;95479.34;;;18.27;100.00
34031;BME280;20319;28.466;-16.274;2023-09-07T07:13:26;95640.19;;;19.30;100.00
34031;BME280;20319;28.466;-16.274;2023-09-07T07:15:52;95624.13;;;19.20;100.00
34031;BME280;20319;28.466;-16.274;2023-09-07T07:18:18;95607.72;;;19.02;100.00
34031;BME280;20319;28.466;-16.274;2023-09-07T07:20:44;95635.66;;;19.25;100.00
34031;BME280;20319;28.466;-16.274;2023-09-07T07:23:10;95501.00;;;18.41;100.00
34031;BME280;20319;28.466;-16.274;2023-09-07T07:25:36;95461.63;;;18.08;100.00
34031;BME280;20319;28.466;-16.274;2023-09-07T07:28:06;95604.16;;;18.93;100.00
34031;BME280;20319;28.466;-16.274;2023-09-07T07:30:36;95669.91;;;19.12;100.00
34031;BME280;20319;28.466;-16.274;2023-09-07T07:33:03;95467.28;;;17.98;100.00
34031;BME280;20319;28.466;-16.274;2023-09-07T07:35:33;95646.34;;;18.99;100.00
34031;BME280;20319;28.466;-16.274;2023-09-07T07:38:03;95636.66;;;19.07;100.00
34031;BME280;20319;28.466;-16.274;2023-09-07T07:40:30;95650.66;;;19.00;100.00
34031;BME280;20319;28.466;-16.274;2023-09-07T07:42:55;95655.38;;;19.08;100.00
34031;BME280;20319;28.466;-16.274;2023-09-07T07:45:21;95421.56;;;17.60;100.00
34031;BME280;20319;28.466;-16.274;2023-09-07T07:47:50;95652.16;;;19.06;100.00
34031;BME280;20319;28.466;-16.274;2023-09-07T07:50:16;95624.28;;;18.92;100.00
34031;BME280;20319;28.466;-16.274;2023-09-07T07:52:42;95526.72;;;18.30;100.00
34031;BME280;20319;28.466;-16.274;2023-09-07T07:55:08;95648.00;;;19.09;100.00
34031;BME280;20319;28.466;-16.274;2023-09-07T07:57:34;95635.03;;;19.06;100.00
34031;BME280;20319;28.466;-16.274;2023-09-07T08:00:00;95512.00;;;18.22;100.00
34031;BME280;20319;28.466;-16.274;2023-09-07T08:02:26;95659.66;;;19.09;100.00
34031;BME280;20319;28.466;-16.274;2023-09-07T08:04:51;95665.59;;;19.11;100.00
34031;BME280;20319;28.466;-16.274;2023-09-07T08:07:17;95661.75;;;19.12;100.00
34031;BME280;20319;28.466;-16.274;2023-09-07T08:09:43;95660.16;;;19.11;100.00
34031;BME280;20319;28.466;-16.274;2023-09-07T08:12:08;95619.47;;;18.89;100.00
34031;BME280;20319;28.466;-16.274;2023-09-07T08:14:35;95634.25;;;19.05;100.00
34031;BME280;20319;28.466;-16.274;2023-09-07T08:17:01;95678.78;;;19.27;100.00
34031;BME280;20319;28.466;-16.274;2023-09-07T08:19:27;95641.63;;;19.13;100.00
34031;BME280;20319;28.466;-16.274;2023-09-07T08:21:57;95668.97;;;19.31;100.00
34031;BME280;20319;28.466;-16.274;2023-09-07T08:24:23;95512.75;;;18.36;100.00
34031;BME280;20319;28.466;-16.274;2023-09-07T08:26:49;95684.38;;;19.44;100.00
34031;BME280;20319;28.466;-16.274;2023-09-07T08:29:19;95644.94;;;19.24;100.00
34031;BME280;20319;28.466;-16.274;2023-09-07T08:31:46;95686.34;;;19.52;100.00
34031;BME280;20319;28.466;-16.274;2023-09-07T08:34:13;95683.50;;;19.57;100.00
34031;BME280;20319;28.466;-16.274;2023-09-07T08:36:40;95669.56;;;19.50;100.00
34031;BME280;20319;28.466;-16.274;2023-09-07T08:39:07;95532.03;;;18.70;100.00
34031;BME280;20319;28.466;-16.274;2023-09-07T08:41:39;95694.28;;;19.70;100.00
34031;BME280;20319;28.466;-16.274;2023-09-07T08:44:16;95684.06;;;19.76;100.00
34031;BME280;20319;28.466;-16.274;2023-09-07T08:46:43;95673.69;;;19.78;100.00
34031;BME280;20319;28.466;-16.274;2023-09-07T08:49:10;95687.34;;;19.86;100.00
34031;BME280;20319;28.466;-16.274;2023-09-07T08:51:37;95684.00;;;19.89;100.00
34031;BME280;20319;28.466;-16.274;2023-09-07T08:54:07;95634.91;;;19.55;100.00
34031;BME280;20319;28.466;-16.274;2023-09-07T08:56:33;95580.63;;;19.33;100.00
34031;BME280;20319;28.466;-16.274;2023-09-07T08:58:59;95678.44;;;20.03;100.00
34031;BME280;20319;28.466;-16.274;2023-09-07T09:01:25;95647.03;;;19.88;100.00
34031;BME280;20319;28.466;-16.274;2023-09-07T09:03:51;95683.44;;;20.09;100.00
34031;BME280;20319;28.466;-16.274;2023-09-07T09:06:17;95667.72;;;19.98;100.00
34031;BME280;20319;28.466;-16.274;2023-09-07T09:08:49;95633.75;;;19.87;100.00
34031;BME280;20319;28.466;-16.274;2023-09-07T09:11:16;95524.16;;;19.22;100.00
34031;BME280;20319;28.466;-16.274;2023-09-07T09:13:43;95669.53;;;20.11;100.00
34031;BME280;20319;28.466;-16.274;2023-09-07T09:16:10;95684.66;;;20.25;100.00
34031;BME280;20319;28.466;-16.274;2023-09-07T09:18:36;95559.28;;;19.49;100.00
34031;BME280;20319;28.466;-16.274;2023-09-07T09:21:01;95687.41;;;20.34;100.00
34031;BME280;20319;28.466;-16.274;2023-09-07T09:23:37;95689.50;;;20.37;100.00
34031;BME280;20319;28.466;-16.274;2023-09-07T09:26:03;95677.63;;;20.33;100.00
34031;BME280;20319;28.466;-16.274;2023-09-07T09:28:34;95695.28;;;20.52;100.00
34031;BME280;20319;28.466;-16.274;2023-09-07T09:31:00;95688.25;;;20.51;100.00
34031;BME280;20319;28.466;-16.274;2023-09-07T09:33:26;95682.66;;;20.65;100.00
34031;BME280;20319;28.466;-16.274;2023-09-07T09:35:54;95657.19;;;20.52;100.00
34031;BME280;20319;28.466;-16.274;2023-09-07T09:38:20;95711.19;;;20.76;100.00
34031;BME280;20319;28.466;-16.274;2023-09-07T09:40:46;95658.50;;;20.64;100.00
34031;BME280;20319;28.466;-16.274;2023-09-07T09:43:12;95565.56;;;20.05;100.00
34031;BME280;20319;28.466;-16.274;2023-09-07T09:45:38;95708.47;;;20.85;100.00
34031;BME280;20319;28.466;-16.274;2023-09-07T09:48:08;95695.22;;;21.00;100.00
34031;BME280;20319;28.466;-16.274;2023-09-07T09:50:34;95696.53;;;21.03;100.00
34031;BME280;20319;28.466;-16.274;2023-09-07T09:53:06;95554.09;;;20.25;100.00
34031;BME280;20319;28.466;-16.274;2023-09-07T09:55:33;95677.94;;;20.96;100.00
34031;BME280;20319;28.466;-16.274;2023-09-07T09:57:59;95518.69;;;20.00;100.00
34031;BME280;20319;28.466;-16.274;2023-09-07T10:00:26;95548.03;;;20.20;100.00
34031;BME280;20319;28.466;-16.274;2023-09-07T10:03:00;95701.63;;;21.21;100.00
34031;BME280;20319;28.466;-16.274;2023-09-07T10:05:29;95706.78;;;21.31;100.00
34031;BME280;20319;28.466;-16.274;2023-09-07T10:08:00;95703.88;;;21.36;100.00
34031;BME280;20319;28.466;-16.274;2023-09-07T10:10:33;95713.50;;;21.42;100.00
34031;BME280;20319;28.466;-16.274;2023-09-07T10:12:59;95575.44;;;20.66;100.00
34031;BME280;20319;28.466;-16.274;2023-09-07T10:15:27;95554.91;;;20.60;100.00
34031;BME280;20319;28.466;-16.274;2023-09-07T10:20:57;95708.84;;;21.60;100.00
34031;BME280;20319;28.466;-16.274;2023-09-07T10:23:43;95706.28;;;21.55;100.00
34031;BME280;20319;28.466;-16.274;2023-09-07T10:26:12;95726.78;;;21.61;100.00
34031;BME280;20319;28.466;-16.274;2023-09-07T10:28:38;95553.78;;;20.70;100.00
34031;BME280;20319;28.466;-16.274;2023-09-07T10:31:06;95584.84;;;20.86;100.00
34031;BME280;20319;28.466;-16.274;2023-09-07T10:33:33;95691.34;;;21.52;100.00
34031;BME280;20319;28.466;-16.274;2023-09-07T10:36:00;95622.81;;;21.16;100.00
34031;BME280;20319;28.466;-16.274;2023-09-07T10:38:27;95715.66;;;21.74;100.00
34031;BME280;20319;28.466;-16.274;2023-09-07T10:40:57;95699.03;;;21.76;100.00
34031;BME280;20319;28.466;-16.274;2023-09-07T10:43:27;95705.44;;;21.80;100.00
34031;BME280;20319;28.466;-16.274;2023-09-07T10:45:54;95712.66;;;21.84;100.00
34031;BME280;20319;28.466;-16.274;2023-09-07T10:48:21;95724.03;;;21.86;100.00
34031;BME280;20319;28.466;-16.274;2023-09-07T10:50:47;95724.84;;;21.87;99.77
34031;BME280;20319;28.466;-16.274;2023-09-07T10:53:14;95696.59;;;21.74;99.39
34031;BME280;20319;28.466;-16.274;2023-09-07T10:55:40;95717.94;;;21.89;99.27
34031;BME280;20319;28.466;-16.274;2023-09-07T10:58:09;95707.19;;;21.93;98.74
34031;BME280;20319;28.466;-16.274;2023-09-07T11:00:36;95717.09;;;21.98;98.14
34031;BME280;20319;28.466;-16.274;2023-09-07T11:03:08;95596.56;;;21.12;98.09
34031;BME280;20319;28.466;-16.274;2023-09-07T11:05:37;95719.53;;;21.90;97.31
34031;BME280;20319;28.466;-16.274;2023-09-07T11:08:05;95700.94;;;21.84;96.99
34031;BME280;20319;28.466;-16.274;2023-09-07T11:10:35;95720.44;;;22.03;96.62
34031;BME280;20319;28.466;-16.274;2023-09-07T11:13:05;95721.56;;;22.11;97.10
34031;BME280;20319;28.466;-16.274;2023-09-07T11:15:33;95572.00;;;21.20;96.69
34031;BME280;20319;28.466;-16.274;2023-09-07T11:18:07;95711.75;;;22.10;95.10
34031;BME280;20319;28.466;-16.274;2023-09-07T11:20:35;95708.44;;;22.04;94.84
34031;BME280;20319;28.466;-16.274;2023-09-07T11:23:02;95673.34;;;21.85;95.74
34031;BME280;20319;28.466;-16.274;2023-09-07T11:25:34;95574.72;;;21.29;94.97
34031;BME280;20319;28.466;-16.274;2023-09-07T11:28:02;95674.59;;;21.97;95.53
34031;BME280;20319;28.466;-16.274;2023-09-07T11:30:28;95760.16;;;22.30;96.15
34031;BME280;20319;28.466;-16.274;2023-09-07T11:33:02;95724.38;;;22.31;94.44
34031;BME280;20319;28.466;-16.274;2023-09-07T11:35:28;95556.31;;;21.26;94.06
34031;BME280;20319;28.466;-16.274;2023-09-07T11:37:53;95693.31;;;22.15;93.98
34031;BME280;20319;28.466;-16.274;2023-09-07T11:40:19;95551.00;;;21.29;93.03
34031;BME280;20319;28.466;-16.274;2023-09-07T11:42:44;95701.59;;;22.27;93.47
34031;BME280;20319;28.466;-16.274;2023-09-07T11:45:10;95712.47;;;22.36;93.96
34031;BME280;20319;28.466;-16.274;2023-09-07T11:47:38;95555.47;;;21.42;93.64
34031;BME280;20319;28.466;-16.274;2023-09-07T11:50:05;95700.91;;;22.39;93.14
34031;BME280;20319;28.466;-16.274;2023-09-07T11:52:32;95660.75;;;22.10;91.52
34031;BME280;20319;28.466;-16.274;2023-09-07T11:54:58;95720.47;;;22.41;91.83
34031;BME280;20319;28.466;-16.274;2023-09-07T11:57:23;95651.75;;;22.10;92.37
34031;BME280;20319;28.466;-16.274;2023-09-07T11:59:49;95693.31;;;22.53;92.58
34031;BME280;20319;28.466;-16.274;2023-09-07T12:02:15;95659.97;;;22.39;93.45
34031;BME280;20319;28.466;-16.274;2023-09-07T12:04:42;95569.53;;;21.90;93.25
34031;BME280;20319;28.466;-16.274;2023-09-07T12:07:07;95672.28;;;22.53;93.61
34031;BME280;20319;28.466;-16.274;2023-09-07T12:09:33;95697.72;;;22.66;94.09
34031;BME280;20319;28.466;-16.274;2023-09-07T12:11:59;95667.97;;;22.52;94.04
34031;BME280;20319;28.466;-16.274;2023-09-07T12:14:24;95686.34;;;22.64;94.45
34031;BME280;20319;28.466;-16.274;2023-09-07T12:16:50;95635.41;;;22.39;93.51
34031;BME280;20319;28.466;-16.274;2023-09-07T12:19:15;95670.81;;;22.56;92.53
34031;BME280;20319;28.466;-16.274;2023-09-07T12:21:42;95694.53;;;22.64;92.12
34031;BME280;20319;28.466;-16.274;2023-09-07T12:24:08;95687.16;;;22.64;91.43
34031;BME280;20319;28.466;-16.274;2023-09-07T12:26:33;95701.59;;;22.65;91.38
34031;BME280;20319;28.466;-16.274;2023-09-07T12:28:59;95550.19;;;21.83;89.82
34031;BME280;20319;28.466;-16.274;2023-09-07T12:31:25;95677.75;;;22.74;89.31